createdAt,value
2022-08-20T00:02:30.062Z,14.73
2022-08-20T00:07:35.295Z,11.77
2022-08-20T00:12:44.161Z,11.75
2022-08-20T00:17:48.106Z,12.48
2022-08-20T00:22:53.398Z,14.27
2022-08-20T00:27:57.648Z,13.30
2022-08-20T00:33:04.438Z,11.40
2022-08-20T00:38:09.946Z,12.50
2022-08-20T00:43:35.562Z,14.15
2022-08-20T00:48:42.598Z,13.52
2022-08-20T00:53:47.847Z,14.77
2022-08-20T00:58:52.901Z,14.50
2022-08-20T01:03:56.669Z,15.73
2022-08-20T01:09:02.667Z,13.80
2022-08-20T01:14:11.022Z,12.60
2022-08-20T01:19:29.708Z,13.02
2022-08-20T01:24:39.270Z,14.73
2022-08-20T01:29:44.867Z,14.43
2022-08-20T01:34:48.449Z,13.57
2022-08-20T01:39:52.067Z,14.68
2022-08-20T01:44:58.032Z,13.65
2022-08-20T01:50:15.640Z,15.75
2022-08-20T01:55:22.268Z,20.80
2022-08-20T02:00:28.216Z,15.30
2022-08-20T02:05:32.273Z,13.30
2022-08-20T02:10:36.020Z,16.73
2022-08-20T02:15:43.170Z,17.25
2022-08-20T02:20:47.766Z,15.40
2022-08-20T02:25:51.401Z,15.85
2022-08-20T02:30:56.710Z,18.25
2022-08-20T02:36:00.342Z,17.25
2022-08-20T02:41:03.990Z,14.82
2022-08-20T02:46:09.514Z,16.92
2022-08-20T02:51:13.237Z,18.98
2022-08-20T02:56:17.039Z,14.93
2022-08-20T03:01:22.301Z,20.98
2022-08-20T03:06:26.303Z,17.20
2022-08-20T03:11:29.997Z,17.40
2022-08-20T03:16:35.264Z,16.50
2022-08-20T03:21:38.861Z,19.42
2022-08-20T03:26:42.602Z,17.17
2022-08-20T03:31:47.894Z,16.98
2022-08-20T03:36:51.458Z,18.80
2022-08-20T03:41:55.077Z,19.02
2022-08-20T03:47:00.290Z,17.48
2022-08-20T03:52:04.317Z,22.75
2022-08-20T03:57:13.257Z,18.10
2022-08-20T04:02:18.689Z,20.65
2022-08-20T04:07:24.667Z,21.52
2022-08-20T04:12:28.614Z,22.42
2022-08-20T04:17:33.851Z,21.73
2022-08-20T04:27:40.853Z,22.83
2022-08-20T04:32:46.087Z,19.25
2022-08-20T04:42:53.273Z,20.30
2022-08-20T04:48:03.859Z,22.58
2022-08-20T04:53:11.135Z,17.23
2022-08-20T04:58:17.752Z,17.40
2022-08-20T05:03:23.626Z,18.55
2022-08-20T05:08:28.599Z,17.75
2022-08-20T05:13:32.274Z,18.88
2022-08-20T05:18:37.523Z,16.75
2022-08-20T05:23:41.311Z,20.35
2022-08-20T05:28:47.218Z,16.45
2022-08-20T05:34:02.999Z,20.58
2022-08-20T05:39:06.662Z,20.45
2022-08-20T05:44:11.422Z,17.90
2022-08-20T05:49:18.921Z,14.90
2022-08-20T05:54:23.105Z,17.30
2022-08-20T05:59:27.118Z,16.48
2022-08-20T06:04:32.467Z,16.60
2022-08-20T06:09:36.165Z,18.98
2022-08-20T06:14:39.863Z,17.67
2022-08-20T06:19:46.925Z,17.60
2022-08-20T06:24:50.641Z,20.38
2022-08-20T06:29:54.900Z,20.63
2022-08-20T06:35:01.067Z,22.35
2022-08-20T06:40:07.621Z,22.98
2022-08-20T06:45:12.157Z,28.38
2022-08-20T06:50:19.902Z,15.57
2022-08-20T06:55:23.949Z,24.45
2022-08-20T07:00:28.933Z,17.23
2022-08-20T07:05:35.976Z,20.30
2022-08-20T07:10:39.865Z,21.40
2022-08-20T07:15:44.170Z,28.27
2022-08-20T07:20:49.862Z,28.23
2022-08-20T07:25:54.613Z,17.80
2022-08-20T07:30:58.519Z,19.33
2022-08-20T07:36:17.665Z,21.15
2022-08-20T07:41:21.597Z,18.88
2022-08-20T07:46:25.198Z,19.55
2022-08-20T07:51:36.552Z,18.98
2022-08-20T07:56:40.158Z,21.58
2022-08-20T08:01:44.037Z,20.42
2022-08-20T08:06:49.966Z,23.98
2022-08-20T08:11:53.588Z,17.60
2022-08-20T08:17:00.751Z,20.75
2022-08-20T08:22:07.473Z,20.63
2022-08-20T08:27:11.699Z,20.05
2022-08-20T08:32:15.269Z,23.67
2022-08-20T08:37:20.545Z,26.02
2022-08-20T08:42:30.995Z,23.00
2022-08-20T08:47:39.942Z,19.25
2022-08-20T08:52:54.998Z,19.80
2022-08-20T08:58:16.487Z,23.30
2022-08-20T09:03:27.221Z,19.90
2022-08-20T09:08:36.631Z,20.48
2022-08-20T09:13:41.148Z,17.33
2022-08-20T09:18:44.995Z,23.27
2022-08-20T09:23:50.218Z,17.48
2022-08-20T09:28:53.788Z,20.42
2022-08-20T09:33:57.351Z,16.23
2022-08-20T09:39:03.357Z,23.70
2022-08-20T09:44:07.065Z,23.08
2022-08-20T09:49:10.686Z,19.13
2022-08-20T09:54:16.120Z,23.42
2022-08-20T09:59:19.727Z,20.00
2022-08-20T10:04:23.369Z,22.83
2022-08-20T10:09:28.658Z,22.98
2022-08-20T10:14:32.413Z,19.92
2022-08-20T10:19:36.118Z,17.33
2022-08-20T10:24:41.356Z,23.92
2022-08-20T10:29:47.021Z,19.27
2022-08-20T10:39:56.097Z,17.85
2022-08-20T10:44:59.719Z,17.45
2022-08-20T10:50:05.582Z,15.32
2022-08-20T11:00:17.121Z,20.40
2022-08-20T11:05:20.767Z,19.45
2022-08-20T11:10:27.716Z,16.48
2022-08-20T11:15:31.636Z,16.05
2022-08-20T11:20:36.311Z,16.52
2022-08-20T11:25:41.520Z,15.63
2022-08-20T11:30:45.120Z,18.43
2022-08-20T11:35:50.080Z,15.48
2022-08-20T11:40:55.494Z,18.77
2022-08-20T11:45:59.258Z,16.37
2022-08-20T11:51:02.812Z,14.57
2022-08-20T11:56:08.650Z,15.18
2022-08-20T12:01:17.307Z,14.73
2022-08-20T12:06:20.870Z,18.08
2022-08-20T12:11:27.108Z,16.33
2022-08-20T12:16:30.664Z,14.00
2022-08-20T12:21:35.101Z,14.52
2022-08-20T12:26:40.377Z,18.92
2022-08-20T12:31:43.974Z,15.73
2022-08-20T12:36:47.555Z,16.20
2022-08-20T12:41:52.762Z,14.60
2022-08-20T12:47:08.045Z,16.13
2022-08-20T12:52:11.640Z,17.63
2022-08-20T12:57:17.675Z,20.40
2022-08-20T13:02:21.316Z,21.15
2022-08-20T13:07:24.948Z,18.02
2022-08-20T13:12:30.215Z,16.92
2022-08-20T13:17:38.883Z,17.83
2022-08-20T13:22:43.899Z,18.83
2022-08-20T13:27:49.526Z,14.90
2022-08-20T13:32:53.299Z,14.55
2022-08-20T13:37:56.922Z,14.98
2022-08-20T13:43:06.169Z,19.75
2022-08-20T13:48:15.176Z,18.40
2022-08-20T13:53:19.037Z,11.82
2022-08-20T13:58:24.286Z,14.68
2022-08-20T14:03:27.843Z,15.40
2022-08-20T14:08:31.588Z,15.05
2022-08-20T14:13:36.804Z,14.60
2022-08-20T14:18:40.382Z,18.20
2022-08-20T14:23:44.033Z,17.52
2022-08-20T14:28:49.247Z,14.27
2022-08-20T14:33:52.826Z,22.17
2022-08-20T14:38:56.395Z,16.95
2022-08-20T14:44:01.602Z,15.05
2022-08-20T14:49:09.041Z,14.98
2022-08-20T14:54:12.643Z,13.85
2022-08-20T14:59:17.831Z,16.10
2022-08-20T15:04:21.406Z,15.87
2022-08-20T15:09:25.001Z,17.27
2022-08-20T15:14:30.293Z,15.23
2022-08-20T15:19:36.457Z,20.80
2022-08-20T15:24:40.112Z,18.40
2022-08-20T15:29:48.019Z,17.38
2022-08-20T15:34:51.612Z,10.75
2022-08-20T15:39:56.294Z,15.75
2022-08-20T15:45:01.565Z,13.87
2022-08-20T15:50:14.116Z,15.60
2022-08-20T15:55:18.245Z,12.73
2022-08-20T16:00:26.228Z,12.55
2022-08-20T16:05:40.058Z,12.40
2022-08-20T16:10:54.695Z,11.68
2022-08-20T16:16:05.980Z,12.43
2022-08-20T16:21:13.723Z,11.00
2022-08-20T16:26:33.036Z,13.88
2022-08-20T16:31:46.128Z,12.30
2022-08-20T16:37:03.538Z,13.55
2022-08-20T16:42:10.793Z,14.40
2022-08-20T16:47:19.478Z,11.43
2022-08-20T16:52:23.157Z,14.77
2022-08-20T16:57:28.733Z,12.38
2022-08-20T17:02:33.973Z,8.77
2022-08-20T17:07:50.726Z,13.85
2022-08-20T17:12:57.636Z,11.15
2022-08-20T17:18:20.938Z,9.25
2022-08-20T17:23:24.552Z,14.35
2022-08-20T17:28:30.824Z,13.18
2022-08-20T17:33:51.689Z,10.30
2022-08-20T17:38:57.602Z,12.18
2022-08-20T17:44:04.001Z,12.93
2022-08-20T17:49:15.107Z,12.82
2022-08-20T17:54:23.134Z,12.20
2022-08-20T17:59:59.556Z,13.88
2022-08-20T18:04:58.285Z,13.48
2022-08-20T18:10:07.197Z,12.65
2022-08-20T18:15:16.202Z,11.38
2022-08-20T18:20:50.711Z,13.63
2022-08-20T18:25:58.467Z,13.07
2022-08-20T18:31:04.110Z,14.82
2022-08-20T18:36:23.274Z,12.10
2022-08-20T18:41:30.462Z,12.45
2022-08-20T18:46:34.894Z,11.70
2022-08-20T18:56:45.831Z,12.70
2022-08-20T19:01:50.787Z,10.73
2022-08-20T19:07:00.079Z,11.40
2022-08-20T19:12:24.310Z,12.25
2022-08-20T19:17:57.544Z,11.07
2022-08-20T19:23:07.558Z,12.80
2022-08-20T19:28:20.990Z,12.60
2022-08-20T19:33:29.885Z,12.90
2022-08-20T19:38:35.661Z,10.95
2022-08-20T19:43:44.000Z,12.32
2022-08-20T19:49:00.664Z,11.70
2022-08-20T19:54:06.011Z,13.45
2022-08-20T19:59:11.134Z,12.70
2022-08-20T20:04:18.400Z,14.35
2022-08-20T20:09:26.155Z,13.10
2022-08-20T20:14:31.804Z,10.75
2022-08-20T20:19:47.149Z,12.98
2022-08-20T20:25:05.307Z,14.60
2022-08-20T20:30:12.922Z,11.40
2022-08-20T20:35:27.586Z,12.43
2022-08-20T20:40:36.084Z,12.77
2022-08-20T20:45:42.771Z,9.02
2022-08-20T20:50:47.346Z,11.40
2022-08-20T20:55:58.142Z,11.48
2022-08-20T21:01:01.741Z,11.15
2022-08-20T21:06:05.587Z,13.45
2022-08-20T21:11:12.876Z,12.32
2022-08-20T21:16:17.046Z,11.00
2022-08-20T21:21:20.617Z,13.60
2022-08-20T21:26:26.853Z,10.52
2022-08-20T21:31:33.716Z,12.27
2022-08-20T21:36:37.548Z,8.90
2022-08-20T21:46:46.552Z,7.63
2022-08-20T21:51:50.617Z,8.85
2022-08-20T21:56:59.062Z,8.93
2022-08-20T22:02:02.633Z,7.90
2022-08-20T22:07:07.478Z,8.23
2022-08-20T22:12:18.841Z,10.15
2022-08-20T22:17:22.494Z,7.90
2022-08-20T22:22:26.060Z,8.48
2022-08-20T22:27:31.472Z,6.50
2022-08-20T22:32:51.320Z,9.40
2022-08-20T22:37:55.925Z,7.25
2022-08-20T22:43:01.147Z,7.22
2022-08-20T22:48:06.326Z,8.38
2022-08-20T22:53:10.933Z,7.60
2022-08-20T22:58:16.348Z,9.10
2022-08-20T23:03:23.500Z,9.10
2022-08-20T23:08:43.967Z,6.30
2022-08-20T23:13:49.225Z,11.20
2022-08-20T23:18:53.016Z,7.75
2022-08-20T23:23:56.585Z,8.45
2022-08-20T23:29:01.851Z,6.95
2022-08-20T23:34:05.444Z,7.05
2022-08-20T23:39:09.140Z,8.90
2022-08-20T23:44:26.373Z,8.85
2022-08-20T23:49:31.937Z,7.75
2022-08-20T23:54:35.546Z,7.38
2022-08-20T23:59:40.770Z,6.63
